Time;durP1;ratioP1;P1;durP2;ratioP2;P2;SDS_P1;SDS_P2;PMS_P1;PMS_P2;Temp;Humidity;BMP_temperature;BMP_pressure;BME280_temperature;BME280_humidity;BME280_pressure;Samples;Min_cycle;Max_cycle;Signal;HPM_P1;HPM_P2
2021/05/02 00:01:01;;;;;;;57.27;36.90;;;;;;;7.93;78.81;96130.56;5032305;28;20533;-66
2021/05/02 00:03:26;;;;;;;58.23;37.50;;;;;;;7.35;79.48;96133.06;5033380;28;21051;-66
2021/05/02 00:05:52;;;;;;;58.40;35.27;;;;;;;7.49;78.92;96139.44;5032532;28;20677;-65
2021/05/02 00:08:18;;;;;;;54.03;34.27;;;;;;;7.73;77.89;96143.09;5033025;28;20203;-66
2021/05/02 00:10:44;;;;;;;55.10;35.90;;;;;;;7.49;78.70;96142.06;4996908;28;20184;-66
2021/05/02 00:13:09;;;;;;;56.37;36.57;;;;;;;7.41;79.26;96143.81;5032668;28;20514;-65
2021/05/02 00:15:35;;;;;;;62.10;37.30;;;;;;;7.36;78.56;96144.28;5015221;28;20200;-66
2021/05/02 00:18:01;;;;;;;54.83;35.03;;;;;;;7.30;78.82;96147.56;5032682;28;20646;-70
2021/05/02 00:20:27;;;;;;;52.87;35.47;;;;;;;7.61;78.22;96141.75;5032527;28;20180;-66
2021/05/02 00:22:56;;;;;;;53.33;35.23;;;;;;;7.63;77.67;96150.25;5032891;28;20477;-64
2021/05/02 00:25:26;;;;;;;55.27;35.90;;;;;;;7.55;77.96;96145.81;5031930;28;20421;-66
2021/05/02 00:27:51;;;;;;;56.10;36.93;;;;;;;7.42;77.68;96158.50;5032238;28;20414;-65
2021/05/02 00:30:22;;;;;;;57.23;34.63;;;;;;;7.39;78.11;96162.25;5031982;28;20430;-67
2021/05/02 00:32:49;;;;;;;58.93;36.27;;;;;;;7.53;77.36;96158.19;5031926;28;20253;-65
2021/05/02 00:35:16;;;;;;;49.90;34.23;;;;;;;7.34;78.20;96165.31;5031363;28;20478;-66
2021/05/02 00:37:42;;;;;;;48.27;34.00;;;;;;;7.32;77.67;96166.44;5030622;28;20862;-66
2021/05/02 00:40:13;;;;;;;49.87;34.87;;;;;;;7.58;77.23;96168.16;5014408;28;20580;-66
2021/05/02 00:42:51;;;;;;;48.47;34.03;;;;;;;7.52;76.42;96165.22;5032660;28;20533;-65
2021/05/02 00:45:48;;;;;;;50.67;33.37;;;;;;;7.71;76.08;96175.53;5044854;28;20433;-65
2021/05/02 00:48:23;;;;;;;55.07;33.27;;;;;;;7.71;76.35;96175.53;5038157;28;20421;-65
2021/05/02 00:50:56;;;;;;;54.27;34.50;;;;;;;7.76;76.23;96178.47;5036159;28;20451;-65
2021/05/02 00:53:46;;;;;;;54.90;33.87;;;;;;;7.73;75.89;96182.22;5039015;28;20454;-65
2021/05/02 00:56:26;;;;;;;52.67;35.40;;;;;;;7.43;76.71;96178.38;5036817;28;20438;-65
2021/05/02 00:59:03;;;;;;;58.50;35.93;;;;;;;7.75;76.03;96176.84;5039710;28;20423;-66
2021/05/02 01:01:49;;;;;;;53.67;35.97;;;;;;;7.51;76.70;96175.78;5038935;28;20937;-66
2021/05/02 01:04:24;;;;;;;55.80;34.37;;;;;;;7.40;76.82;96181.28;5035091;28;20456;-67
2021/05/02 01:06:51;;;;;;;48.37;32.00;;;;;;;7.84;75.55;96181.09;5038403;28;20509;-67
2021/05/02 01:09:17;;;;;;;59.53;35.97;;;;;;;7.53;75.98;96185.09;5038580;28;20450;-67
2021/05/02 01:11:46;;;;;;;51.63;32.40;;;;;;;7.48;76.65;96192.56;5039182;28;20893;-67
2021/05/02 01:14:12;;;;;;;52.37;34.63;;;;;;;7.63;76.56;96197.19;5044499;28;20454;-66
2021/05/02 01:20:00;;;;;;;49.60;33.40;;;;;;;7.27;76.87;96199.97;5028910;28;20446;-68
2021/05/02 01:22:31;;;;;;;55.77;34.10;;;;;;;7.51;76.49;96202.69;5050819;28;20453;-67
2021/05/02 01:24:56;;;;;;;52.60;34.30;;;;;;;7.71;75.88;96206.81;5045521;28;20184;-67
2021/05/02 01:27:28;;;;;;;53.70;33.30;;;;;;;7.40;75.67;96205.59;5038216;28;20480;-67
2021/05/02 01:29:55;;;;;;;49.87;31.83;;;;;;;7.33;75.79;96202.78;5037819;28;20306;-67
2021/05/02 01:32:21;;;;;;;44.17;32.53;;;;;;;7.32;76.11;96202.91;5038689;28;20442;-68
2021/05/02 01:34:48;;;;;;;44.00;31.00;;;;;;;7.12;77.10;96205.78;5045018;28;20454;-68
2021/05/02 01:37:14;;;;;;;44.90;31.27;;;;;;;7.52;75.33;96214.75;5050910;28;20437;-67
2021/05/02 01:39:39;;;;;;;46.50;32.87;;;;;;;7.62;75.26;96216.41;5049695;28;20430;-67
2021/05/02 01:42:05;;;;;;;41.47;30.50;;;;;;;7.43;75.70;96214.88;5045924;28;20261;-66
2021/05/02 01:44:31;;;;;;;43.07;30.77;;;;;;;7.23;76.05;96220.34;5037832;28;20191;-66
2021/05/02 01:46:59;;;;;;;51.37;33.40;;;;;;;7.46;75.93;96217.16;5037970;28;20183;-66
2021/05/02 01:49:25;;;;;;;47.17;31.33;;;;;;;7.43;75.73;96226.13;5016306;28;20180;-66
2021/05/02 01:51:51;;;;;;;47.00;30.83;;;;;;;7.58;75.36;96220.28;5036111;28;20446;-67
2021/05/02 01:54:16;;;;;;;45.37;31.03;;;;;;;7.29;75.86;96230.13;5037511;28;20488;-66
2021/05/02 01:56:43;;;;;;;45.50;32.40;;;;;;;7.03;76.15;96236.16;5037593;28;20175;-66
2021/05/02 01:59:10;;;;;;;44.17;30.90;;;;;;;7.18;76.92;96243.41;5036555;28;20210;-66
2021/05/02 02:01:35;;;;;;;45.33;32.47;;;;;;;7.06;77.41;96248.06;5033081;28;20973;-66
2021/05/02 02:04:04;;;;;;;43.43;31.33;;;;;;;7.06;76.98;96251.50;5034361;28;20426;-66
2021/05/02 02:06:29;;;;;;;61.77;32.90;;;;;;;7.00;77.93;96251.28;5034552;28;20838;-66
2021/05/02 02:08:58;;;;;;;45.73;33.70;;;;;;;7.33;76.86;96254.06;5034214;28;20414;-66
2021/05/02 02:11:27;;;;;;;48.63;33.57;;;;;;;7.59;75.81;96256.66;5033578;28;20556;-68
2021/05/02 02:13:53;;;;;;;50.33;33.03;;;;;;;7.16;76.54;96261.00;5033886;28;20569;-67
2021/05/02 02:16:19;;;;;;;51.70;32.13;;;;;;;7.37;76.27;96252.81;5032954;28;20948;-67
2021/05/02 02:18:45;;;;;;;47.33;33.37;;;;;;;7.37;75.61;96252.81;5032442;28;20190;-66
2021/05/02 02:21:12;;;;;;;52.63;33.93;;;;;;;7.20;77.35;96257.91;5033608;28;20904;-66
2021/05/02 02:23:40;;;;;;;48.77;33.77;;;;;;;7.18;77.20;96259.84;5032385;28;20658;-66
2021/05/02 02:26:14;;;;;;;43.70;32.30;;;;;;;7.35;76.26;96267.78;5033737;28;20458;-67
2021/05/02 02:28:39;;;;;;;50.37;35.13;;;;;;;7.12;76.75;96270.91;5032396;28;20992;-66
2021/05/02 02:31:06;;;;;;;49.90;35.07;;;;;;;7.12;77.45;96270.91;5029916;28;20625;-66
2021/05/02 02:33:33;;;;;;;54.23;37.50;;;;;;;7.08;77.08;96269.56;5033642;28;20269;-66
2021/05/02 02:36:00;;;;;;;51.20;35.50;;;;;;;7.25;77.01;96265.28;5033485;28;20429;-66
2021/05/02 02:38:27;;;;;;;57.00;37.33;;;;;;;7.14;77.27;96274.19;5033636;28;20963;-66
2021/05/02 02:40:56;;;;;;;56.40;35.23;;;;;;;7.36;76.44;96278.06;5032918;28;20430;-66
2021/05/02 02:43:24;;;;;;;52.27;36.70;;;;;;;7.20;76.84;96291.81;5032267;28;20869;-67
2021/05/02 02:45:55;;;;;;;48.27;33.53;;;;;;;7.42;76.19;96291.44;5031556;28;20407;-67
2021/05/02 02:48:24;;;;;;;49.30;34.43;;;;;;;7.40;76.15;96301.19;5036022;28;20419;-66
2021/05/02 02:50:52;;;;;;;49.17;34.93;;;;;;;7.62;75.70;96289.44;5033059;28;20472;-65
2021/05/02 02:53:20;;;;;;;51.40;35.40;;;;;;;7.34;76.13;96305.25;5033203;28;20466;-65
2021/05/02 02:55:53;;;;;;;44.33;33.93;;;;;;;7.43;75.43;96299.13;5031672;28;20930;-66
2021/05/02 02:58:20;;;;;;;60.67;35.53;;;;;;;7.64;74.75;96298.72;5035393;28;20419;-66
2021/05/02 03:00:46;;;;;;;50.70;37.07;;;;;;;7.42;76.08;96307.91;5032974;28;20450;-66
2021/05/02 03:03:18;;;;;;;51.87;34.67;;;;;;;7.67;75.42;96305.44;5033142;28;20524;-66
2021/05/02 03:05:45;;;;;;;51.00;37.40;;;;;;;7.29;75.43;96305.72;5036268;28;20418;-65
2021/05/02 03:08:11;;;;;;;53.43;34.90;;;;;;;7.79;73.88;96308.56;5032948;28;20857;-66
2021/05/02 03:10:40;;;;;;;47.93;34.33;;;;;;;7.45;74.27;96317.22;5032560;28;20419;-67
2021/05/02 03:13:05;;;;;;;62.00;38.60;;;;;;;7.59;74.44;96323.63;5032384;28;20453;-66
2021/05/02 03:15:31;;;;;;;56.00;38.57;;;;;;;7.90;73.02;96310.09;5032995;28;20972;-67
2021/05/02 03:18:05;;;;;;;51.17;37.30;;;;;;;7.74;73.52;96321.28;5032796;28;20837;-67
2021/05/02 03:20:39;;;;;;;48.63;35.17;;;;;;;7.81;73.16;96317.84;5030797;28;20206;-66
2021/05/02 03:23:12;;;;;;;54.90;36.57;;;;;;;7.68;73.17;96327.94;5031486;28;20885;-67
2021/05/02 03:25:41;;;;;;;50.50;34.30;;;;;;;7.94;72.27;96324.47;5032130;28;20430;-66
2021/05/02 03:28:09;;;;;;;51.20;34.07;;;;;;;7.92;72.04;96329.00;5031607;28;20431;-66
2021/05/02 03:30:35;;;;;;;47.20;33.40;;;;;;;7.92;71.73;96331.63;5031264;28;20422;-66
2021/05/02 03:33:04;;;;;;;51.67;35.40;;;;;;;8.11;71.14;96335.78;5031486;28;20438;-67
2021/05/02 03:35:35;;;;;;;55.07;36.60;;;;;;;8.03;72.44;96333.13;5026899;28;20458;-66
2021/05/02 03:38:16;;;;;;;51.00;35.27;;;;;;;7.97;71.48;96332.78;5027496;28;20506;-67
2021/05/02 03:40:43;;;;;;;45.47;34.90;;;;;;;7.48;71.98;96341.19;5032135;28;20917;-66
2021/05/02 03:43:08;;;;;;;48.33;35.10;;;;;;;7.49;71.69;96349.84;5032601;28;20971;-67
2021/05/02 03:45:34;;;;;;;50.67;34.90;;;;;;;7.66;71.96;96345.53;5032898;28;20415;-66
2021/05/02 03:48:00;;;;;;;44.17;33.37;;;;;;;8.02;70.86;96342.75;5033944;28;20179;-66
2021/05/02 03:50:25;;;;;;;46.27;33.07;;;;;;;8.08;70.41;96344.72;5035204;28;20550;-68
2021/05/02 03:52:51;;;;;;;45.87;32.60;;;;;;;8.23;69.94;96347.56;5033216;28;20563;-67
2021/05/02 03:55:17;;;;;;;44.57;34.40;;;;;;;8.42;68.86;96349.09;5032448;28;20261;-66
2021/05/02 03:57:43;;;;;;;44.13;32.73;;;;;;;8.48;68.53;96352.88;5032343;28;20184;-66
2021/05/02 04:00:09;;;;;;;45.73;33.50;;;;;;;8.54;68.02;96356.63;5031573;28;20418;-66
2021/05/02 04:02:34;;;;;;;44.67;33.80;;;;;;;8.55;68.59;96361.69;5031871;28;20207;-64
2021/05/02 04:05:00;;;;;;;43.00;31.77;;;;;;;8.48;68.06;96365.09;5032237;28;20552;-66
2021/05/02 04:07:26;;;;;;;44.30;32.33;;;;;;;8.51;68.01;96359.56;5031828;28;20167;-68
2021/05/02 04:09:51;;;;;;;37.27;29.27;;;;;;;8.69;67.93;96362.03;5031672;28;20183;-65
2021/05/02 04:12:17;;;;;;;42.60;31.23;;;;;;;8.77;67.70;96359.44;5031818;28;20286;-66
2021/05/02 04:14:43;;;;;;;39.20;31.10;;;;;;;8.86;67.45;96363.72;5031394;28;20195;-65
2021/05/02 04:17:13;;;;;;;41.47;30.90;;;;;;;8.90;67.39;96365.00;5032146;28;20553;-66
2021/05/02 04:19:40;;;;;;;37.77;29.77;;;;;;;8.82;67.13;96369.44;5030771;28;20626;-67
2021/05/02 04:22:07;;;;;;;40.93;31.57;;;;;;;8.89;67.83;96378.25;5031391;28;20986;-67
2021/05/02 04:24:32;;;;;;;41.27;31.90;;;;;;;8.44;69.43;96381.03;5030899;28;20429;-66
2021/05/02 04:26:59;;;;;;;40.47;31.97;;;;;;;7.55;72.22;96392.72;5030918;28;20422;-66
2021/05/02 04:29:29;;;;;;;42.73;32.60;;;;;;;8.06;71.26;96398.06;5031595;28;20179;-66
2021/05/02 04:31:55;;;;;;;43.67;32.17;;;;;;;8.05;70.42;96394.63;5030858;28;20433;-66
2021/05/02 04:34:22;;;;;;;40.03;31.60;;;;;;;8.06;70.85;96388.44;5031128;28;20450;-65
2021/05/02 04:36:48;;;;;;;46.60;32.60;;;;;;;8.09;71.62;96395.13;5031085;28;20241;-65
2021/05/02 04:39:14;;;;;;;49.47;34.80;;;;;;;8.15;71.09;96408.38;5038779;28;20422;-65
2021/05/02 04:41:40;;;;;;;45.53;33.10;;;;;;;8.25;70.11;96410.03;5032129;28;20439;-65
2021/05/02 04:44:06;;;;;;;50.63;33.53;;;;;;;8.10;71.49;96410.63;5030938;28;20419;-67
2021/05/02 04:46:32;;;;;;;46.73;34.87;;;;;;;8.38;70.51;96423.47;5031392;28;20573;-66
2021/05/02 04:48:57;;;;;;;44.40;34.27;;;;;;;8.54;70.49;96421.94;5031121;28;20426;-65
2021/05/02 04:51:23;;;;;;;45.30;33.43;;;;;;;8.01;71.62;96429.84;5031124;28;20225;-65
2021/05/02 04:53:49;;;;;;;43.10;32.00;;;;;;;8.10;72.41;96428.91;5038751;28;20246;-67
2021/05/02 04:56:15;;;;;;;44.30;32.80;;;;;;;8.43;71.21;96439.50;5031252;28;20245;-66
2021/05/02 04:58:44;;;;;;;48.83;32.03;;;;;;;8.13;72.20;96446.88;5033077;28;20438;-67
2021/05/02 05:01:12;;;;;;;43.80;32.30;;;;;;;8.12;71.90;96441.81;5031231;28;20672;-66
2021/05/02 05:03:37;;;;;;;46.00;32.13;;;;;;;8.06;71.95;96447.63;5031163;28;20438;-66
2021/05/02 05:06:03;;;;;;;45.30;33.37;;;;;;;7.92;72.74;96447.22;5031432;28;20425;-65
2021/05/02 05:08:29;;;;;;;44.47;33.80;;;;;;;8.40;71.51;96444.19;5030832;28;20544;-67
2021/05/02 05:10:54;;;;;;;46.23;32.50;;;;;;;8.41;71.00;96443.22;5030511;28;20736;-66
2021/05/02 05:13:20;;;;;;;44.87;32.90;;;;;;;8.22;71.18;96444.28;5030669;28;20960;-66
2021/05/02 05:15:46;;;;;;;42.50;32.77;;;;;;;8.02;71.66;96452.34;5031039;28;20199;-66
2021/05/02 05:18:11;;;;;;;46.67;32.47;;;;;;;8.17;71.70;96447.38;5029979;28;20176;-66
2021/05/02 05:20:37;;;;;;;41.40;31.40;;;;;;;8.52;70.42;96448.19;5030567;28;20581;-65
2021/05/02 05:23:02;;;;;;;42.13;31.90;;;;;;;8.41;70.87;96448.44;5030680;28;20215;-66
2021/05/02 05:25:28;;;;;;;41.27;32.47;;;;;;;8.52;70.71;96455.22;5031649;28;20591;-65
2021/05/02 05:27:54;;;;;;;43.03;32.70;;;;;;;8.78;69.37;96460.34;5030511;28;20271;-66
2021/05/02 05:30:19;;;;;;;42.93;31.60;;;;;;;8.62;70.44;96466.34;5018364;28;20176;-66
2021/05/02 05:32:45;;;;;;;42.70;31.20;;;;;;;8.58;70.49;96475.47;5030579;28;20206;-66
2021/05/02 05:35:11;;;;;;;41.50;31.40;;;;;;;8.24;70.29;96468.44;5030697;28;20211;-66
2021/05/02 05:37:37;;;;;;;36.10;28.20;;;;;;;8.24;70.60;96473.66;5031641;28;20180;-65
2021/05/02 05:40:05;;;;;;;42.07;31.07;;;;;;;8.64;69.17;96467.00;5034659;28;20184;-69
2021/05/02 05:42:31;;;;;;;38.97;29.60;;;;;;;9.03;68.47;96474.31;5033677;28;20446;-68
2021/05/02 05:44:56;;;;;;;40.00;29.30;;;;;;;8.09;70.12;96465.59;5034835;28;20791;-66
2021/05/02 05:47:22;;;;;;;38.37;29.10;;;;;;;8.54;69.47;96474.16;5035874;28;20180;-67
2021/05/02 05:49:48;;;;;;;38.30;28.97;;;;;;;8.32;70.55;96467.66;5035072;28;20190;-65
2021/05/02 05:52:13;;;;;;;43.17;29.33;;;;;;;8.32;70.24;96471.09;5037099;28;20208;-66
2021/05/02 05:54:40;;;;;;;36.00;28.67;;;;;;;8.09;71.08;96478.66;5034087;28;20655;-66
2021/05/02 05:57:05;;;;;;;41.30;28.20;;;;;;;8.83;69.42;96467.72;5042124;28;20179;-67
2021/05/02 05:59:31;;;;;;;35.23;28.80;;;;;;;9.11;68.49;96478.75;5046599;28;20481;-66
2021/05/02 06:01:56;;;;;;;40.97;29.77;;;;;;;9.24;68.50;96480.88;5039894;28;20231;-66
2021/05/02 06:04:22;;;;;;;40.30;29.33;;;;;;;9.59;67.68;96478.13;5035832;28;20539;-66
2021/05/02 06:06:48;;;;;;;37.57;29.77;;;;;;;9.39;68.19;96486.28;5033514;28;20194;-67
2021/05/02 06:09:13;;;;;;;32.70;27.60;;;;;;;9.82;67.10;96494.78;5035882;28;20523;-66
2021/05/02 06:11:39;;;;;;;36.70;28.87;;;;;;;9.94;66.25;96495.28;5042670;28;20199;-66
2021/05/02 06:14:06;;;;;;;30.97;25.87;;;;;;;10.14;65.80;96489.66;5047231;28;20286;-67
2021/05/02 06:16:32;;;;;;;39.23;26.13;;;;;;;8.89;69.10;96493.22;5046712;28;20434;-68
2021/05/02 06:18:59;;;;;;;32.50;25.87;;;;;;;8.55;68.88;96502.72;5037023;28;20422;-67
2021/05/02 06:21:26;;;;;;;31.37;24.57;;;;;;;8.28;69.90;96494.06;5034319;28;20172;-67
2021/05/02 06:23:53;;;;;;;31.40;24.97;;;;;;;8.76;68.29;96497.09;5034282;28;20485;-66
2021/05/02 06:26:20;;;;;;;32.63;26.00;;;;;;;8.84;68.71;96503.31;5043550;28;20843;-69
2021/05/02 06:28:47;;;;;;;31.77;24.33;;;;;;;8.59;68.40;96501.44;5035095;28;20803;-66
2021/05/02 06:31:13;;;;;;;31.90;26.50;;;;;;;8.48;69.22;96496.50;5035575;28;20488;-67
2021/05/02 06:33:39;;;;;;;34.60;26.93;;;;;;;8.74;68.87;96495.63;5034552;28;20472;-67
2021/05/02 06:36:05;;;;;;;39.93;27.10;;;;;;;9.20;67.56;96496.06;5034873;28;20927;-65
2021/05/02 06:38:31;;;;;;;33.10;24.90;;;;;;;8.40;68.91;96499.88;5033959;28;20440;-67
2021/05/02 06:40:56;;;;;;;32.60;26.00;;;;;;;9.05;68.45;96503.72;5033545;28;20557;-67
2021/05/02 06:43:22;;;;;;;31.17;25.77;;;;;;;8.91;68.60;96506.94;5034467;28;20219;-66
2021/05/02 06:45:48;;;;;;;38.50;27.20;;;;;;;9.20;67.17;96505.69;5033011;28;20592;-65
2021/05/02 06:48:13;;;;;;;35.50;26.03;;;;;;;9.73;66.07;96521.13;5035514;28;20187;-65
2021/05/02 06:50:39;;;;;;;34.27;25.97;;;;;;;9.61;65.89;96512.78;5033127;28;20572;-68
2021/05/02 06:53:05;;;;;;;35.60;26.30;;;;;;;9.87;66.73;96512.59;5035006;28;20200;-68
2021/05/02 06:55:30;;;;;;;35.73;26.23;;;;;;;10.34;68.39;96524.16;5033701;28;20603;-68
2021/05/02 06:57:59;;;;;;;26.97;22.30;;;;;;;10.86;65.16;96519.44;5033671;28;20187;-68
2021/05/02 07:00:28;;;;;;;31.00;24.10;;;;;;;10.28;64.47;96530.06;5034393;28;20746;-69
2021/05/02 07:02:54;;;;;;;28.80;24.00;;;;;;;10.95;62.46;96525.47;5033573;28;20442;-69
2021/05/02 07:05:20;;;;;;;22.57;18.17;;;;;;;11.05;66.77;96526.88;5033566;28;20411;-69
2021/05/02 07:07:45;;;;;;;26.77;20.57;;;;;;;11.26;59.04;96519.38;5033075;28;20438;-70
2021/05/02 07:10:11;;;;;;;24.83;19.07;;;;;;;11.46;58.05;96523.22;5033462;28;20265;-69
2021/05/02 07:12:37;;;;;;;18.80;16.53;;;;;;;11.81;58.26;96520.97;5012923;28;20204;-68
2021/05/02 07:15:03;;;;;;;23.87;20.10;;;;;;;11.19;58.31;96529.75;5033867;28;20461;-68
2021/05/02 07:17:31;;;;;;;23.50;18.10;;;;;;;10.98;59.85;96532.97;5032976;28;20179;-68
2021/05/02 07:19:56;;;;;;;20.13;17.43;;;;;;;11.53;58.84;96526.75;5030854;28;20429;-68
2021/05/02 07:22:23;;;;;;;19.47;16.73;;;;;;;11.70;59.93;96534.53;5032357;28;20827;-68
2021/05/02 07:24:50;;;;;;;19.87;17.70;;;;;;;12.00;56.31;96534.63;5033100;28;20183;-68
2021/05/02 07:27:15;;;;;;;31.57;17.67;;;;;;;11.92;55.13;96537.28;5032708;28;20423;-68
2021/05/02 07:29:41;;;;;;;21.63;16.43;;;;;;;12.49;56.71;96533.34;5033050;28;20438;-70
2021/05/02 07:32:07;;;;;;;22.13;17.80;;;;;;;11.99;55.49;96532.97;5032579;28;20200;-69
2021/05/02 07:34:32;;;;;;;21.87;18.93;;;;;;;11.84;56.76;96540.81;5032844;28;20235;-68
2021/05/02 07:36:58;;;;;;;26.40;18.47;;;;;;;12.02;55.12;96537.88;5036152;28;20701;-66
2021/05/02 07:39:24;;;;;;;28.00;19.90;;;;;;;12.05;56.05;96534.91;5039670;28;20179;-68
2021/05/02 07:41:49;;;;;;;21.93;19.20;;;;;;;11.52;57.15;96538.25;5040399;28;20273;-66
2021/05/02 07:44:15;;;;;;;23.67;20.17;;;;;;;11.94;56.85;96541.38;5041909;28;20217;-68
2021/05/02 07:46:41;;;;;;;25.53;19.33;;;;;;;11.44;56.83;96543.56;5047207;28;20631;-68
2021/05/02 07:49:07;;;;;;;31.77;18.37;;;;;;;11.25;56.54;96552.69;5041824;28;20180;-69
2021/05/02 07:51:33;;;;;;;21.67;18.03;;;;;;;11.78;55.89;96544.94;5040445;28;20273;-69
2021/05/02 07:54:00;;;;;;;23.37;18.27;;;;;;;11.57;56.88;96542.97;5041219;28;20263;-68
2021/05/02 07:56:25;;;;;;;23.13;17.60;;;;;;;12.05;53.75;96545.41;5042126;28;20458;-69
2021/05/02 07:58:51;;;;;;;20.40;17.90;;;;;;;12.26;54.04;96546.53;5038732;28;20905;-67
2021/05/02 08:01:16;;;;;;;18.90;16.50;;;;;;;11.02;53.71;96552.63;5039035;28;20274;-67
2021/05/02 08:03:45;;;;;;;21.77;17.57;;;;;;;10.76;53.80;96564.19;5021817;28;20317;-71
2021/05/02 08:06:10;;;;;;;19.43;17.30;;;;;;;9.97;54.16;96568.22;5041355;28;20172;-68
2021/05/02 08:08:36;;;;;;;20.73;17.63;;;;;;;10.02;54.28;96572.16;5037518;28;20940;-67
2021/05/02 08:11:02;;;;;;;22.07;16.60;;;;;;;10.38;53.85;96577.06;5037588;28;20180;-68
2021/05/02 08:13:27;;;;;;;20.30;16.60;;;;;;;10.57;53.35;96584.56;5037831;28;20290;-68
2021/05/02 08:15:53;;;;;;;19.00;16.70;;;;;;;11.06;51.74;96582.78;5019266;28;20211;-69
2021/05/02 08:18:19;;;;;;;19.80;15.53;;;;;;;10.80;52.68;96591.72;5037305;28;20180;-67
2021/05/02 08:20:44;;;;;;;20.20;17.07;;;;;;;10.97;51.59;96584.59;5035315;28;20172;-68
2021/05/02 08:23:10;;;;;;;22.57;16.20;;;;;;;11.46;51.12;96586.19;5030049;28;20211;-67
2021/05/02 08:25:37;;;;;;;24.30;16.63;;;;;;;11.19;50.65;96593.53;5039262;28;20530;-69
2021/05/02 08:28:03;;;;;;;20.37;17.03;;;;;;;11.43;50.05;96590.94;5039415;28;20176;-68
2021/05/02 08:30:28;;;;;;;21.37;17.10;;;;;;;11.18;50.79;96594.50;5037726;28;20457;-68
2021/05/02 08:32:54;;;;;;;18.90;16.90;;;;;;;11.25;50.28;96589.41;5037387;28;20211;-67
2021/05/02 08:35:20;;;;;;;20.03;17.07;;;;;;;10.74;51.04;96602.84;5038411;28;20192;-68
2021/05/02 08:37:45;;;;;;;19.63;17.40;;;;;;;11.15;51.31;96588.81;5039148;28;20187;-68
2021/05/02 08:40:12;;;;;;;20.50;17.10;;;;;;;11.09;51.69;96592.91;5039476;28;20184;-68
2021/05/02 08:42:40;;;;;;;22.33;16.53;;;;;;;10.98;50.84;96601.13;5038844;28;20251;-69
2021/05/02 08:45:06;;;;;;;24.57;18.00;;;;;;;11.26;50.63;96593.66;5043396;28;20484;-69
2021/05/02 08:47:36;;;;;;;21.30;17.70;;;;;;;11.39;50.61;96600.97;5046219;28;20486;-68
2021/05/02 08:50:10;;;;;;;24.93;18.17;;;;;;;11.12;50.04;96592.56;5030807;28;20472;-68
2021/05/02 08:52:36;;;;;;;19.63;15.53;;;;;;;11.18;49.34;96599.75;5044246;28;20439;-67
2021/05/02 08:55:04;;;;;;;24.17;16.90;;;;;;;11.39;49.44;96594.91;5037914;28;20787;-67
2021/05/02 08:57:30;;;;;;;19.70;16.80;;;;;;;11.76;49.09;96588.94;5037260;28;20525;-67
2021/05/02 08:59:55;;;;;;;21.60;15.93;;;;;;;11.90;47.49;96592.63;5046532;28;20419;-67
2021/05/02 09:02:25;;;;;;;21.87;18.80;;;;;;;12.00;48.70;96602.91;5032315;28;20829;-69
2021/05/02 09:05:03;;;;;;;19.90;17.10;;;;;;;11.69;49.00;96595.88;5034210;28;20186;-67
2021/05/02 09:07:39;;;;;;;21.93;17.50;;;;;;;11.51;48.71;96602.22;5032455;28;20844;-66
2021/05/02 09:10:05;;;;;;;18.80;16.20;;;;;;;11.60;49.51;96596.91;5015840;28;20430;-68
2021/05/02 09:12:31;;;;;;;22.63;17.77;;;;;;;11.35;49.46;96600.50;5034118;28;20449;-66
2021/05/02 09:14:57;;;;;;;21.80;17.53;;;;;;;12.28;47.81;96597.09;5036969;28;20473;-67
2021/05/02 09:19:50;;;;;;;20.43;16.53;;;;;;;12.57;45.72;96598.16;5036575;28;20180;-67
2021/05/02 09:22:17;;;;;;;23.83;17.33;;;;;;;12.61;46.28;96591.50;5036428;28;20203;-67
2021/05/02 09:24:57;;;;;;;22.17;17.47;;;;;;;12.42;46.49;96596.31;5036315;28;20419;-68
2021/05/02 09:27:26;;;;;;;25.30;16.03;;;;;;;13.20;44.75;96592.50;5038447;28;20429;-67
2021/05/02 09:29:52;;;;;;;21.70;16.27;;;;;;;13.14;44.17;96587.97;5036399;28;20909;-68
2021/05/02 09:32:22;;;;;;;18.10;15.43;;;;;;;13.59;43.01;96590.53;5035863;28;20576;-68
2021/05/02 09:34:52;;;;;;;22.63;17.03;;;;;;;13.83;42.82;96586.75;5035554;28;20203;-68
2021/05/02 09:37:20;;;;;;;25.50;17.60;;;;;;;13.15;42.14;96594.88;5035275;28;20422;-68
2021/05/02 09:39:55;;;;;;;19.93;17.67;;;;;;;13.18;41.93;96597.13;5033254;28;20877;-68
2021/05/02 09:42:31;;;;;;;23.00;17.93;;;;;;;12.80;42.02;96608.56;5029653;28;20438;-66
2021/05/02 09:44:59;;;;;;;31.33;18.63;;;;;;;12.17;43.93;96602.78;5036343;28;20947;-70
2021/05/02 09:47:36;;;;;;;28.17;18.30;;;;;;;12.27;43.62;96598.09;5032567;28;21052;-70
2021/05/02 09:50:09;;;;;;;20.97;18.67;;;;;;;12.21;44.54;96611.94;5025454;28;20530;-68
2021/05/02 09:52:40;;;;;;;24.03;18.03;;;;;;;12.94;43.18;96603.50;5033795;28;20434;-68
2021/05/02 09:55:26;;;;;;;21.00;18.80;;;;;;;12.92;42.59;96608.94;5035390;28;20488;-68
2021/05/02 09:58:08;;;;;;;21.40;18.37;;;;;;;13.86;40.57;96599.50;5030231;28;20438;-68
2021/05/02 10:00:39;;;;;;;22.10;17.10;;;;;;;13.89;40.50;96600.97;5027155;28;20476;-68
2021/05/02 10:03:16;;;;;;;24.57;17.20;;;;;;;13.73;38.98;96602.03;5041160;28;20488;-68
2021/05/02 10:06:03;;;;;;;20.40;17.60;;;;;;;14.36;38.36;96604.03;5035011;28;20450;-68
2021/05/02 10:08:31;;;;;;;19.40;17.30;;;;;;;13.80;39.65;96608.97;5035576;28;20526;-68
2021/05/02 10:10:58;;;;;;;21.57;17.90;;;;;;;14.08;39.38;96610.88;5036887;28;20434;-68
2021/05/02 10:13:24;;;;;;;18.67;16.67;;;;;;;14.31;40.37;96607.22;5037584;28;20522;-68
2021/05/02 10:15:50;;;;;;;21.27;16.30;;;;;;;14.66;38.71;96599.38;5037499;28;20450;-67
2021/05/02 10:18:16;;;;;;;21.87;17.97;;;;;;;13.71;40.29;96617.22;5039254;28;20415;-67
2021/05/02 10:20:45;;;;;;;21.00;17.40;;;;;;;12.86;41.39;96613.13;5049254;28;20184;-67
2021/05/02 10:23:13;;;;;;;20.80;18.30;;;;;;;12.52;42.46;96611.84;5046184;28;20816;-68
2021/05/02 10:25:40;;;;;;;25.40;18.20;;;;;;;12.25;43.87;96627.19;5043732;28;20422;-67
2021/05/02 10:28:06;;;;;;;21.07;18.37;;;;;;;12.64;43.45;96621.91;5046962;28;20908;-67
2021/05/02 10:30:36;;;;;;;18.77;16.77;;;;;;;12.82;41.80;96619.72;5013339;28;20433;-70
2021/05/02 10:33:09;;;;;;;17.77;15.83;;;;;;;12.60;40.39;96617.00;5041231;28;20457;-69
2021/05/02 10:35:42;;;;;;;20.73;16.03;;;;;;;12.87;39.66;96613.94;5049580;28;20527;-68
2021/05/02 10:38:07;;;;;;;18.73;15.53;;;;;;;12.69;40.28;96616.91;5047412;28;20447;-68
2021/05/02 10:40:33;;;;;;;20.47;15.93;;;;;;;12.48;40.18;96614.97;5035200;28;20918;-67
2021/05/02 10:43:03;;;;;;;22.23;19.47;;;;;;;12.56;40.38;96613.09;5036677;28;20347;-70
2021/05/02 10:45:41;;;;;;;24.17;17.33;;;;;;;12.97;40.50;96611.03;5035032;28;20622;-69
2021/05/02 10:48:06;;;;;;;19.33;17.00;;;;;;;12.80;40.65;96618.28;5028842;28;20513;-67
2021/05/02 10:50:41;;;;;;;18.43;15.90;;;;;;;13.64;38.19;96603.97;5041890;28;20465;-68
2021/05/02 10:53:10;;;;;;;17.20;15.40;;;;;;;13.87;37.05;96603.78;5031670;28;20195;-68
2021/05/02 10:56:00;;;;;;;16.67;14.97;;;;;;;14.35;36.27;96605.81;5031535;28;20490;-68
2021/05/02 10:58:30;;;;;;;16.87;15.10;;;;;;;14.85;35.98;96600.53;5035353;28;20410;-68
2021/05/02 11:00:59;;;;;;;16.50;14.80;;;;;;;14.43;35.60;96596.97;5034617;28;20426;-67
2021/05/02 11:03:40;;;;;;;16.37;14.60;;;;;;;14.41;35.77;96598.97;5038163;28;20447;-70
2021/05/02 11:06:10;;;;;;;19.50;16.33;;;;;;;14.24;36.27;96604.50;5028512;28;20845;-68
2021/05/02 11:08:54;;;;;;;16.13;14.47;;;;;;;13.50;38.17;96603.00;5033763;28;20895;-69
2021/05/02 11:11:31;;;;;;;17.00;15.03;;;;;;;13.55;38.04;96608.53;5035278;28;20445;-69
2021/05/02 11:14:07;;;;;;;20.30;14.17;;;;;;;14.27;37.64;96604.16;5034810;28;20528;-69
2021/05/02 11:16:35;;;;;;;18.30;15.40;;;;;;;14.33;37.24;96607.03;5033268;28;20865;-68
2021/05/02 11:19:02;;;;;;;18.30;15.40;;;;;;;14.49;37.17;96601.47;5024200;28;20917;-68
2021/05/02 11:21:46;;;;;;;17.10;14.93;;;;;;;14.33;38.10;96615.75;5032632;28;20426;-69
2021/05/02 11:24:12;;;;;;;16.87;15.17;;;;;;;12.71;42.03;96630.69;5027304;28;20419;-69
2021/05/02 11:27:15;;;;;;;21.03;14.70;;;;;;;11.97;45.48;96640.81;5033275;28;20430;-69
2021/05/02 11:29:54;;;;;;;18.07;16.27;;;;;;;11.03;50.11;96651.28;5034023;28;20492;-69
2021/05/02 11:32:29;;;;;;;17.00;15.17;;;;;;;10.90;51.29;96644.75;5032206;28;20438;-69